createdAt,value
2022-11-26T00:00:11.259Z,99981.66
2022-11-26T00:02:44.812Z,99981.28
2022-11-26T00:05:19.007Z,99983.47
2022-11-26T00:07:57.507Z,99978.39
2022-11-26T00:10:34.649Z,99982.48
2022-11-26T00:13:21.589Z,99983.11
2022-11-26T00:15:55.516Z,99980.73
2022-11-26T00:18:28.262Z,99978.13
2022-11-26T00:21:02.642Z,99983.22
2022-11-26T00:23:35.631Z,99989.08
2022-11-26T00:26:13.648Z,99985.49
2022-11-26T00:29:00.458Z,99985.55
2022-11-26T00:31:33.676Z,99991.55
2022-11-26T00:34:06.419Z,99995.45
2022-11-26T00:36:40.516Z,99992.55
2022-11-26T00:39:18.103Z,99989.84
2022-11-26T00:41:53.793Z,99984.77
2022-11-26T00:44:27.658Z,99986.06
2022-11-26T00:47:01.317Z,99981.95
2022-11-26T00:49:34.789Z,99978.67
2022-11-26T00:52:15.178Z,99989.61
2022-11-26T00:54:47.809Z,99986.39
2022-11-26T00:57:20.479Z,99994.28
2022-11-26T00:59:53.561Z,99991.31
2022-11-26T01:02:26.343Z,99995.80
2022-11-26T01:04:59.309Z,99993.20
2022-11-26T01:07:32.874Z,99991.53
2022-11-26T01:10:07.468Z,99989.42
2022-11-26T01:12:40.855Z,99993.31
2022-11-26T01:15:14.840Z,99996.72
2022-11-26T01:17:47.863Z,100000.28
2022-11-26T01:20:29.903Z,99993.18
2022-11-26T01:23:02.593Z,100003.45
2022-11-26T01:25:35.608Z,100000.13
2022-11-26T01:28:14.204Z,100000.13
2022-11-26T01:30:47.312Z,99994.45
2022-11-26T01:33:19.919Z,100000.53
2022-11-26T01:35:52.540Z,100001.53
2022-11-26T01:38:25.347Z,99998.34
2022-11-26T01:41:23.910Z,99999.13
2022-11-26T01:43:59.073Z,100003.42
2022-11-26T01:46:33.133Z,99997.61
2022-11-26T01:49:29.610Z,100003.72
2022-11-26T01:52:24.011Z,100003.39
2022-11-26T01:54:57.105Z,100007.44
2022-11-26T01:57:33.181Z,100007.44
2022-11-26T02:00:07.383Z,100008.84
2022-11-26T02:02:41.973Z,100014.66
2022-11-26T02:05:24.517Z,100022.55
2022-11-26T02:07:58.317Z,100033.13
2022-11-26T02:10:31.326Z,100029.05
2022-11-26T02:13:04.910Z,100032.17
2022-11-26T02:15:48.132Z,100030.35
2022-11-26T02:18:21.679Z,100030.66
2022-11-26T02:21:10.448Z,100033.13
2022-11-26T02:24:12.159Z,100025.25
2022-11-26T02:27:15.131Z,100024.36
2022-11-26T02:30:07.606Z,100044.59
2022-11-26T02:32:48.449Z,100037.37
2022-11-26T02:35:50.907Z,100033.59
2022-11-26T02:38:33.294Z,100041.77
2022-11-26T02:41:06.978Z,100048.44
2022-11-26T02:43:40.971Z,100044.44
2022-11-26T02:46:18.130Z,100047.70
2022-11-26T02:48:52.828Z,100050.70
2022-11-26T02:51:28.465Z,100055.19
2022-11-26T02:54:00.496Z,100052.22
2022-11-26T02:56:34.099Z,100055.70
2022-11-26T02:59:06.985Z,100048.03
2022-11-26T03:01:48.703Z,100045.66
2022-11-26T03:04:32.445Z,100040.59
2022-11-26T03:07:07.636Z,100040.70
2022-11-26T03:09:44.918Z,100037.22
2022-11-26T03:12:18.747Z,100030.41
2022-11-26T03:14:51.784Z,100041.96
2022-11-26T03:17:24.880Z,100046.92
2022-11-26T03:19:58.130Z,100035.81
2022-11-26T03:22:30.900Z,100038.30
2022-11-26T03:25:04.545Z,100042.59
2022-11-26T03:27:37.314Z,100039.59
2022-11-26T03:30:10.799Z,100045.30
2022-11-26T03:32:43.748Z,100048.78
2022-11-26T03:35:17.681Z,100048.78
2022-11-26T03:37:50.332Z,100058.26
2022-11-26T03:40:23.005Z,100051.96
2022-11-26T03:42:55.664Z,100055.73
2022-11-26T03:45:28.853Z,100058.93
2022-11-26T03:48:01.755Z,100056.08
2022-11-26T03:50:34.544Z,100055.26
2022-11-26T03:53:07.747Z,100056.00
2022-11-26T03:55:40.669Z,100062.30
2022-11-26T03:58:13.323Z,100062.22
2022-11-26T04:00:47.011Z,100069.11
2022-11-26T04:03:21.494Z,100065.00
2022-11-26T04:05:54.331Z,100073.67
2022-11-26T04:08:27.119Z,100072.67
2022-11-26T04:11:00.184Z,100079.16
2022-11-26T04:13:32.988Z,100088.23
2022-11-26T04:16:06.370Z,100093.52
2022-11-26T04:18:39.084Z,100095.82
2022-11-26T04:21:11.973Z,100096.86
2022-11-26T04:23:44.676Z,100096.16
2022-11-26T04:26:17.392Z,100107.83
2022-11-26T04:28:51.416Z,100109.83
2022-11-26T04:31:24.463Z,100113.09
2022-11-26T04:33:57.459Z,100112.86
2022-11-26T04:36:30.127Z,100121.64
2022-11-26T04:39:02.879Z,100113.27
2022-11-26T04:41:37.072Z,100115.23
2022-11-26T04:44:10.730Z,100117.70
2022-11-26T04:46:43.775Z,100120.82
2022-11-26T04:49:16.505Z,100118.23
2022-11-26T04:51:49.175Z,100120.30
2022-11-26T04:54:22.041Z,100122.48
2022-11-26T04:56:54.829Z,100120.02
2022-11-26T04:59:27.625Z,100121.83
2022-11-26T05:02:00.527Z,100114.56
2022-11-26T05:04:33.532Z,100119.75
2022-11-26T05:07:07.500Z,100121.94
2022-11-26T05:09:39.590Z,100119.75
2022-11-26T05:12:12.942Z,100129.72
2022-11-26T05:14:45.643Z,100133.90
2022-11-26T05:17:18.543Z,100138.16
2022-11-26T05:19:52.105Z,100141.56
2022-11-26T05:22:25.219Z,100140.64
2022-11-26T05:24:57.896Z,100142.75
2022-11-26T05:27:30.567Z,100149.72
2022-11-26T05:30:04.209Z,100151.94
2022-11-26T05:32:37.309Z,100150.75
2022-11-26T05:35:10.518Z,100154.75
2022-11-26T05:37:43.363Z,100157.58
2022-11-26T05:40:16.937Z,100170.36
2022-11-26T05:42:49.583Z,100169.58
2022-11-26T05:45:22.892Z,100177.96
2022-11-26T05:47:55.881Z,100176.18
2022-11-26T05:50:28.887Z,100184.07
2022-11-26T05:53:02.289Z,100176.41
2022-11-26T05:55:34.948Z,100179.59
2022-11-26T05:58:09.256Z,100189.19
2022-11-26T06:00:43.852Z,100189.30
2022-11-26T06:03:20.144Z,100194.20
2022-11-26T06:05:51.389Z,100191.49
2022-11-26T06:08:24.299Z,100184.48
2022-11-26T06:10:57.473Z,100189.67
2022-11-26T06:13:31.167Z,100188.16
2022-11-26T06:16:04.900Z,100186.37
2022-11-26T06:18:39.755Z,100189.08
2022-11-26T06:21:12.819Z,100189.19
2022-11-26T06:23:54.270Z,100193.20
2022-11-26T06:26:20.127Z,100195.09
2022-11-26T06:28:52.761Z,100198.20
2022-11-26T06:31:25.448Z,100197.42
2022-11-26T06:33:58.438Z,100200.39
2022-11-26T06:36:31.869Z,100207.91
2022-11-26T06:39:06.001Z,100204.02
2022-11-26T06:41:39.295Z,100208.80
2022-11-26T06:44:13.694Z,100214.40
2022-11-26T06:46:46.479Z,100205.58
2022-11-26T06:49:19.310Z,100205.88
2022-11-26T06:51:52.881Z,100208.06
2022-11-26T06:54:25.900Z,100208.98
2022-11-26T06:56:58.579Z,100211.69
2022-11-26T06:59:31.489Z,100204.39
2022-11-26T07:02:04.830Z,100210.33
2022-11-26T07:04:38.118Z,100220.27
2022-11-26T07:07:12.035Z,100208.96
2022-11-26T07:09:44.937Z,100213.86
2022-11-26T07:12:17.599Z,100218.16
2022-11-26T07:14:50.452Z,100220.45
2022-11-26T07:17:24.243Z,100220.97
2022-11-26T07:19:57.482Z,100219.13
2022-11-26T07:22:30.247Z,100218.94
2022-11-26T07:25:04.517Z,100229.02
2022-11-26T07:27:37.784Z,100227.24
2022-11-26T07:30:11.773Z,100235.28
2022-11-26T07:32:44.697Z,100232.98
2022-11-26T07:35:19.741Z,100243.25
2022-11-26T07:37:53.556Z,100244.33
2022-11-26T07:40:26.489Z,100240.32
2022-11-26T07:43:03.842Z,100240.44
2022-11-26T07:45:38.761Z,100240.66
2022-11-26T07:48:16.739Z,100242.06
2022-11-26T07:50:46.026Z,100239.99
2022-11-26T07:53:18.859Z,100242.59
2022-11-26T07:55:51.903Z,100242.06
2022-11-26T07:58:24.985Z,100242.70
2022-11-26T08:00:57.671Z,100242.92
2022-11-26T08:03:30.990Z,100248.59
2022-11-26T08:06:10.123Z,100241.33
2022-11-26T08:08:43.432Z,100242.22
2022-11-26T08:11:20.814Z,100247.82
2022-11-26T08:14:03.743Z,100256.91
2022-11-26T08:16:37.152Z,100254.71
2022-11-26T08:19:13.966Z,100255.90
2022-11-26T08:21:46.921Z,100260.28
2022-11-26T08:24:21.115Z,100256.50
2022-11-26T08:26:54.043Z,100261.13
2022-11-26T08:29:28.228Z,100259.84
2022-11-26T08:32:01.188Z,100261.91
2022-11-26T08:34:34.781Z,100265.14
2022-11-26T08:37:07.923Z,100260.06
2022-11-26T08:39:41.014Z,100255.88
2022-11-26T08:42:14.194Z,100260.77
2022-11-26T08:44:46.952Z,100258.72
2022-11-26T08:47:19.783Z,100268.70
2022-11-26T08:49:52.618Z,100259.77
2022-11-26T08:52:25.988Z,100266.14
2022-11-26T08:54:58.794Z,100262.55
2022-11-26T08:57:32.242Z,100264.73
2022-11-26T09:00:06.052Z,100267.73
2022-11-26T09:02:38.995Z,100271.63
2022-11-26T09:05:12.365Z,100271.11
2022-11-26T09:07:48.902Z,100268.52
2022-11-26T09:10:19.651Z,100271.00
2022-11-26T09:12:52.652Z,100271.52
2022-11-26T09:15:25.511Z,100272.00
2022-11-26T09:17:58.588Z,100275.41
2022-11-26T09:20:31.567Z,100278.30
2022-11-26T09:23:04.359Z,100273.88
2022-11-26T09:25:41.394Z,100280.48
2022-11-26T09:28:14.168Z,100281.37
2022-11-26T09:30:47.457Z,100281.37
2022-11-26T09:33:20.520Z,100287.69
2022-11-26T09:35:53.247Z,100284.72
2022-11-26T09:38:25.969Z,100284.13
2022-11-26T09:41:13.166Z,100284.13
2022-11-26T09:44:17.714Z,100292.06
2022-11-26T09:47:13.801Z,100290.80
2022-11-26T09:50:00.806Z,100297.06
2022-11-26T09:52:43.471Z,100300.06
2022-11-26T09:55:26.530Z,100304.36
2022-11-26T09:58:35.591Z,100299.43
2022-11-26T10:01:12.139Z,100304.39
2022-11-26T10:03:45.134Z,100304.80
2022-11-26T10:06:51.416Z,100313.48
2022-11-26T10:09:42.568Z,100304.39
2022-11-26T10:12:50.541Z,100302.95
2022-11-26T10:15:20.133Z,100304.84
2022-11-26T10:18:33.575Z,100312.03
2022-11-26T10:21:58.252Z,100316.59
2022-11-26T10:24:29.563Z,100308.17
2022-11-26T10:27:06.992Z,100305.98
2022-11-26T10:29:47.153Z,100311.81
2022-11-26T10:32:40.612Z,100311.63
2022-11-26T10:35:23.172Z,100311.05
2022-11-26T10:37:57.953Z,100303.66
2022-11-26T10:40:33.703Z,100309.26
2022-11-26T10:43:11.101Z,100314.83
2022-11-26T10:45:57.969Z,100312.92
2022-11-26T10:48:34.709Z,100313.59
2022-11-26T10:51:29.977Z,100308.06
2022-11-26T10:54:07.783Z,100313.66
2022-11-26T10:56:47.112Z,100317.55
2022-11-26T10:59:30.618Z,100326.62
2022-11-26T11:02:07.860Z,100327.81
2022-11-26T11:04:44.447Z,100322.91
2022-11-26T11:07:41.476Z,100327.98
2022-11-26T11:10:22.255Z,100333.66
2022-11-26T11:13:13.357Z,100328.22
2022-11-26T11:15:46.575Z,100327.81
2022-11-26T11:18:23.496Z,100327.81
2022-11-26T11:21:02.823Z,100331.05
2022-11-26T11:24:07.289Z,100332.71
2022-11-26T11:26:23.772Z,100323.26
2022-11-26T11:28:58.531Z,100320.26
2022-11-26T11:31:32.508Z,100320.78
2022-11-26T11:34:21.802Z,100325.16
2022-11-26T11:37:05.380Z,100321.27
2022-11-26T11:39:39.149Z,100318.73
2022-11-26T11:42:32.560Z,100319.91
2022-11-26T11:45:07.617Z,100323.69
2022-11-26T11:48:01.762Z,100317.87
2022-11-26T11:50:40.151Z,100322.83
2022-11-26T11:53:17.803Z,100319.98
2022-11-26T11:56:07.639Z,100321.87
2022-11-26T11:59:02.704Z,100317.87
2022-11-26T12:01:49.428Z,100318.09
2022-11-26T12:04:50.730Z,100321.33
2022-11-26T12:07:42.342Z,100324.33
2022-11-26T12:10:33.944Z,100324.98
2022-11-26T12:13:04.193Z,100330.58
2022-11-26T12:15:53.691Z,100329.05
2022-11-26T12:18:58.564Z,100336.44
2022-11-26T12:21:43.818Z,100331.91
2022-11-26T12:24:24.752Z,100339.98
2022-11-26T12:27:01.371Z,100334.45
2022-11-26T12:29:47.992Z,100336.69
2022-11-26T12:32:28.051Z,100343.12
2022-11-26T12:35:08.025Z,100338.22
2022-11-26T12:37:43.526Z,100339.80
2022-11-26T12:40:33.404Z,100340.05
2022-11-26T12:43:19.272Z,100341.52
2022-11-26T12:46:27.540Z,100343.11
2022-11-26T12:49:23.397Z,100342.70
2022-11-26T12:52:20.454Z,100341.41
2022-11-26T12:55:06.825Z,100347.89
2022-11-26T12:57:43.142Z,100349.30
2022-11-26T13:00:30.108Z,100351.90
2022-11-26T13:03:00.900Z,100354.84
2022-11-26T13:05:57.302Z,100357.31
2022-11-26T13:09:03.515Z,100353.72
2022-11-26T13:11:52.597Z,100363.56
2022-11-26T13:14:48.438Z,100372.13
2022-11-26T13:17:26.711Z,100370.09
2022-11-26T13:20:30.465Z,100378.70
2022-11-26T13:23:51.201Z,100379.93
2022-11-26T13:26:59.129Z,100379.05
2022-11-26T13:30:00.414Z,100378.28
2022-11-26T13:33:11.287Z,100378.85
2022-11-26T13:36:25.143Z,100379.63
2022-11-26T13:39:38.511Z,100385.09
2022-11-26T13:42:33.795Z,100378.09
2022-11-26T13:45:20.792Z,100384.85
2022-11-26T13:47:58.445Z,100389.67
2022-11-26T13:50:41.377Z,100389.55
2022-11-26T13:53:26.454Z,100387.36
2022-11-26T13:56:02.314Z,100390.72
2022-11-26T13:58:51.480Z,100391.38
2022-11-26T14:01:41.668Z,100396.72
2022-11-26T14:04:19.157Z,100389.11
2022-11-26T14:07:15.238Z,100397.93
2022-11-26T14:09:52.547Z,100400.27
2022-11-26T14:12:28.152Z,100404.45
2022-11-26T14:15:00.814Z,100399.79
2022-11-26T14:17:37.582Z,100403.02
2022-11-26T14:20:11.645Z,100407.68
2022-11-26T14:22:44.399Z,100417.16
2022-11-26T14:25:17.615Z,100417.16
2022-11-26T14:27:57.535Z,100421.04
2022-11-26T14:30:30.946Z,100413.27
2022-11-26T14:33:17.115Z,100419.34
2022-11-26T14:35:58.747Z,100416.63
2022-11-26T14:38:33.297Z,100425.05
2022-11-26T14:41:06.213Z,100419.34
2022-11-26T14:43:39.076Z,100423.63
2022-11-26T14:46:19.894Z,100419.22
2022-11-26T14:48:59.659Z,100423.87
2022-11-26T14:51:29.878Z,100424.55
2022-11-26T14:54:03.606Z,100431.67
2022-11-26T14:56:41.807Z,100434.27
2022-11-26T14:59:17.726Z,100435.56
2022-11-26T15:01:50.667Z,100441.76
2022-11-26T15:04:39.409Z,100443.86
2022-11-26T15:07:27.866Z,100450.34
2022-11-26T15:10:08.052Z,100449.81
2022-11-26T15:12:40.993Z,100449.16
2022-11-26T15:15:20.674Z,100445.39
2022-11-26T15:17:57.314Z,100453.56
2022-11-26T15:20:31.081Z,100450.36
2022-11-26T15:23:07.033Z,100447.77
2022-11-26T15:25:42.235Z,100446.38
2022-11-26T15:28:24.578Z,100454.16
2022-11-26T15:31:05.482Z,100450.80
2022-11-26T15:33:40.846Z,100455.73
2022-11-26T15:36:17.599Z,100449.00
2022-11-26T15:39:08.517Z,100458.59
2022-11-26T15:41:43.046Z,100455.73
2022-11-26T15:44:29.626Z,100467.23
2022-11-26T15:47:03.025Z,100467.75
2022-11-26T15:49:38.996Z,100467.50
2022-11-26T15:52:14.139Z,100465.31
2022-11-26T15:55:13.978Z,100465.83
2022-11-26T15:57:42.548Z,100468.82
2022-11-26T16:00:32.075Z,100471.56
2022-11-26T16:03:05.621Z,100472.07
2022-11-26T16:05:39.914Z,100469.23
2022-11-26T16:08:30.539Z,100476.09
2022-11-26T16:11:12.459Z,100469.77
2022-11-26T16:13:45.375Z,100472.45
2022-11-26T16:16:21.747Z,100477.39
2022-11-26T16:19:00.871Z,100471.28
2022-11-26T16:21:35.886Z,100475.04
2022-11-26T16:24:19.640Z,100471.16
2022-11-26T16:27:01.767Z,100475.31
2022-11-26T16:29:39.005Z,100467.82
2022-11-26T16:32:12.422Z,100468.98
2022-11-26T16:34:45.745Z,100465.11
2022-11-26T16:37:31.820Z,100466.80
2022-11-26T16:40:12.920Z,100459.93
2022-11-26T16:42:46.001Z,100462.79
2022-11-26T16:45:20.427Z,100468.61
2022-11-26T16:47:54.923Z,100467.44
2022-11-26T16:50:28.934Z,100463.70
2022-11-26T16:53:00.891Z,100465.12
2022-11-26T16:55:33.754Z,100467.30
2022-11-26T16:58:06.989Z,100466.94
2022-11-26T17:00:40.160Z,100471.19
2022-11-26T17:03:14.682Z,100475.87
2022-11-26T17:05:47.682Z,100473.02
2022-11-26T17:08:20.575Z,100471.47
2022-11-26T17:10:53.601Z,100469.16
2022-11-26T17:13:28.309Z,100466.18
2022-11-26T17:16:02.598Z,100469.93
2022-11-26T17:18:35.372Z,100462.42
2022-11-26T17:21:08.159Z,100468.89
2022-11-26T17:23:40.923Z,100472.64
2022-11-26T17:26:25.047Z,100471.59
2022-11-26T17:28:57.762Z,100477.03
2022-11-26T17:31:30.768Z,100473.91
2022-11-26T17:34:03.650Z,100471.46
2022-11-26T17:36:37.118Z,100467.84
2022-11-26T17:39:12.254Z,100473.14
2022-11-26T17:41:45.077Z,100467.08
2022-11-26T17:44:17.931Z,100473.27
2022-11-26T17:47:15.968Z,100477.68
2022-11-26T17:49:25.641Z,100476.91
2022-11-26T17:51:58.316Z,100476.64
2022-11-26T17:54:30.991Z,100480.02
2022-11-26T17:57:03.916Z,100482.08
2022-11-26T17:59:37.046Z,100484.94
2022-11-26T18:02:11.117Z,100485.83
2022-11-26T18:04:43.807Z,100477.41
2022-11-26T18:07:19.689Z,100481.30
2022-11-26T18:09:52.542Z,100485.81
2022-11-26T18:12:29.486Z,100484.66
2022-11-26T18:15:04.370Z,100486.61
2022-11-26T18:17:37.388Z,100483.36
2022-11-26T18:20:11.248Z,100491.65
2022-11-26T18:22:45.386Z,100494.50
2022-11-26T18:25:18.368Z,100492.57
2022-11-26T18:27:51.689Z,100489.58
2022-11-26T18:30:25.061Z,100489.31
2022-11-26T18:32:57.689Z,100495.78
2022-11-26T18:35:30.351Z,100497.48
2022-11-26T18:38:04.260Z,100496.31
2022-11-26T18:40:37.505Z,100495.91
2022-11-26T18:43:10.640Z,100502.78
2022-11-26T18:45:46.953Z,100494.62
2022-11-26T18:48:20.297Z,100500.72
2022-11-26T18:50:59.843Z,100500.72
2022-11-26T18:53:33.286Z,100504.97
2022-11-26T18:56:16.072Z,100501.09
2022-11-26T18:58:48.864Z,100506.39
2022-11-26T19:01:31.253Z,100508.48
2022-11-26T19:04:05.431Z,100505.64
2022-11-26T19:06:38.884Z,100505.51
2022-11-26T19:09:21.944Z,100507.95
2022-11-26T19:11:56.146Z,100494.11
2022-11-26T19:14:29.456Z,100503.28
2022-11-26T19:17:02.565Z,100508.99
2022-11-26T19:19:35.273Z,100506.77
2022-11-26T19:22:08.067Z,100513.38
2022-11-26T19:24:40.765Z,100514.28
2022-11-26T19:27:14.697Z,100506.13
2022-11-26T19:29:47.528Z,100505.90
2022-11-26T19:32:20.582Z,100508.34
2022-11-26T19:34:53.479Z,100506.91
2022-11-26T19:37:26.495Z,100511.81
2022-11-26T19:39:59.484Z,100506.27
2022-11-26T19:42:33.261Z,100510.92
2022-11-26T19:45:08.647Z,100512.34
2022-11-26T19:47:41.815Z,100521.93
2022-11-26T19:50:15.178Z,100516.36
2022-11-26T19:52:48.139Z,100521.27
2022-11-26T19:55:21.496Z,100513.00
2022-11-26T19:57:55.848Z,100513.64
2022-11-26T20:00:29.237Z,100522.17
2022-11-26T20:03:01.939Z,100520.51
2022-11-26T20:05:35.062Z,100518.41
2022-11-26T20:08:08.198Z,100522.19
2022-11-26T20:10:46.949Z,100515.45
2022-11-26T20:13:16.845Z,100514.28
2022-11-26T20:15:49.635Z,100514.16
2022-11-26T20:18:22.612Z,100513.62
2022-11-26T20:21:03.935Z,100519.33
2022-11-26T20:23:38.747Z,100518.70
2022-11-26T20:26:22.082Z,100517.53
2022-11-26T20:28:55.780Z,100523.07
2022-11-26T20:31:29.930Z,100523.75
2022-11-26T20:34:05.855Z,100525.67
2022-11-26T20:36:38.745Z,100527.86
2022-11-26T20:39:17.653Z,100532.14
2022-11-26T20:41:52.073Z,100530.09
2022-11-26T20:44:26.987Z,100539.51
2022-11-26T20:47:01.135Z,100536.92
2022-11-26T20:49:36.838Z,100538.75
2022-11-26T20:52:07.983Z,100544.69
2022-11-26T20:54:41.385Z,100546.38
2022-11-26T20:57:14.112Z,100550.39
2022-11-26T20:59:46.974Z,100552.22
2022-11-26T21:02:19.947Z,100552.09
2022-11-26T21:04:53.786Z,100546.78
2022-11-26T21:07:28.297Z,100546.52
2022-11-26T21:10:01.575Z,100554.80
2022-11-26T21:12:34.549Z,100553.88
2022-11-26T21:15:09.008Z,100557.52
2022-11-26T21:17:42.141Z,100552.08
2022-11-26T21:20:16.790Z,100553.77
2022-11-26T21:22:50.077Z,100556.84
2022-11-26T21:25:23.263Z,100554.78
2022-11-26T21:27:56.032Z,100552.72
2022-11-26T21:30:28.808Z,100556.48
2022-11-26T21:33:07.374Z,100559.70
2022-11-26T21:35:35.142Z,100563.59
2022-11-26T21:38:08.141Z,100562.95
2022-11-26T21:40:40.829Z,100562.67
2022-11-26T21:43:13.456Z,100564.24
2022-11-26T21:45:46.935Z,100563.31
2022-11-26T21:48:20.495Z,100560.73
2022-11-26T21:50:53.378Z,100564.62
2022-11-26T21:53:26.310Z,100562.83
2022-11-26T21:56:00.507Z,100561.27
2022-11-26T21:58:35.368Z,100565.53
2022-11-26T22:01:17.982Z,100566.16
2022-11-26T22:03:54.253Z,100563.20
2022-11-26T22:06:28.101Z,100566.69
2022-11-26T22:09:01.899Z,100558.52
2022-11-26T22:11:37.917Z,100559.19
2022-11-26T22:14:13.932Z,100562.03
2022-11-26T22:16:48.448Z,100565.91
2022-11-26T22:19:21.557Z,100569.02
2022-11-26T22:21:55.093Z,100570.97
2022-11-26T22:24:27.691Z,100565.80
2022-11-26T22:27:00.337Z,100565.00
2022-11-26T22:29:33.258Z,100567.09
2022-11-26T22:32:06.060Z,100566.29
2022-11-26T22:34:38.768Z,100571.47
2022-11-26T22:37:11.434Z,100576.02
2022-11-26T22:39:46.130Z,100570.05
2022-11-26T22:42:18.093Z,100568.52
2022-11-26T22:44:51.024Z,100573.16
2022-11-26T22:47:23.699Z,100574.84
2022-11-26T22:49:56.406Z,100573.56
2022-11-26T22:52:29.003Z,100577.81
2022-11-26T22:55:01.772Z,100578.34
2022-11-26T22:57:35.188Z,100579.36
2022-11-26T23:00:13.068Z,100589.22
2022-11-26T23:02:45.841Z,100584.67
2022-11-26T23:05:18.711Z,100586.11
2022-11-26T23:07:53.267Z,100581.44
2022-11-26T23:10:26.116Z,100586.61
2022-11-26T23:12:58.933Z,100580.40
2022-11-26T23:15:32.032Z,100581.83
2022-11-26T23:18:04.978Z,100581.59
2022-11-26T23:20:38.825Z,100587.92
2022-11-26T23:23:11.864Z,100590.64
2022-11-26T23:25:44.535Z,100587.66
2022-11-26T23:28:17.308Z,100591.66
2022-11-26T23:30:50.922Z,100589.87
2022-11-26T23:33:23.504Z,100589.08
2022-11-26T23:35:57.194Z,100589.20
2022-11-26T23:38:30.641Z,100592.81
2022-11-26T23:41:05.662Z,100587.91
2022-11-26T23:43:40.341Z,100589.48
2022-11-26T23:46:20.660Z,100595.68
2022-11-26T23:48:53.940Z,100603.98
2022-11-26T23:51:32.523Z,100607.33
2022-11-26T23:54:05.419Z,100603.59
2022-11-26T23:56:38.260Z,100602.56
2022-11-26T23:59:12.673Z,100606.94
